createdAt,value
2023-04-20T00:02:54.522Z,7.55
2023-04-20T00:07:48.590Z,7.48
2023-04-20T00:12:43.428Z,7.54
2023-04-20T00:17:38.514Z,7.51
2023-04-20T00:22:32.002Z,7.47
2023-04-20T00:27:25.352Z,7.54
2023-04-20T00:32:20.008Z,7.63
2023-04-20T00:37:13.423Z,7.45
2023-04-20T00:42:10.053Z,7.35
2023-04-20T00:47:03.418Z,7.44
2023-04-20T00:51:58.913Z,7.46
2023-04-20T00:56:53.456Z,7.47
2023-04-20T01:01:46.823Z,7.49
2023-04-20T01:06:40.122Z,7.23
2023-04-20T01:11:34.820Z,7.09
2023-04-20T01:16:28.209Z,7.22
2023-04-20T01:21:22.960Z,7.24
2023-04-20T01:26:20.412Z,7.40
2023-04-20T01:31:14.850Z,7.40
2023-04-20T01:36:10.129Z,7.59
2023-04-20T01:41:04.519Z,7.59
2023-04-20T01:46:00.246Z,7.56
2023-04-20T01:50:54.069Z,7.56
2023-04-20T01:55:47.418Z,7.71
2023-04-20T02:00:40.929Z,7.52
2023-04-20T02:05:35.655Z,7.59
2023-04-20T02:10:29.012Z,7.75
2023-04-20T02:15:22.484Z,7.50
2023-04-20T02:20:15.773Z,7.51
2023-04-20T02:25:11.594Z,7.46
2023-04-20T02:30:06.140Z,7.57
2023-04-20T02:34:59.508Z,7.32
2023-04-20T02:39:52.792Z,7.31
2023-04-20T02:44:47.484Z,7.28
2023-04-20T02:49:41.006Z,7.38
2023-04-20T02:54:34.504Z,7.30
2023-04-20T02:59:27.893Z,7.30
2023-04-20T03:04:22.794Z,7.28
2023-04-20T03:09:16.535Z,7.11
2023-04-20T03:14:10.206Z,7.10
2023-04-20T03:19:04.678Z,7.10
2023-04-20T03:23:59.367Z,6.74
2023-04-20T03:28:52.852Z,7.05
2023-04-20T03:33:46.319Z,7.02
2023-04-20T03:38:39.701Z,6.94
2023-04-20T03:43:34.371Z,6.99
2023-04-20T03:48:28.015Z,7.07
2023-04-20T03:53:21.392Z,7.13
2023-04-20T03:58:14.678Z,7.11
2023-04-20T04:03:09.995Z,7.08
2023-04-20T04:08:03.459Z,6.97
2023-04-20T04:12:56.784Z,7.08
2023-04-20T04:17:50.291Z,7.06
2023-04-20T04:22:45.100Z,6.88
2023-04-20T04:27:39.896Z,6.85
2023-04-20T04:32:34.609Z,6.94
2023-04-20T04:37:28.182Z,6.95
2023-04-20T04:42:22.972Z,6.93
2023-04-20T04:47:17.961Z,6.92
2023-04-20T04:52:11.310Z,6.90
2023-04-20T04:57:05.091Z,6.85
2023-04-20T05:02:00.125Z,6.74
2023-04-20T05:06:53.525Z,6.71
2023-04-20T05:11:46.891Z,6.69
2023-04-20T05:16:40.255Z,6.78
2023-04-20T05:21:35.074Z,7.01
2023-04-20T05:26:28.357Z,6.85
2023-04-20T05:31:21.755Z,6.92
2023-04-20T05:36:15.249Z,7.05
2023-04-20T05:41:10.060Z,6.99
2023-04-20T05:46:03.397Z,6.92
2023-04-20T05:50:56.956Z,7.11
2023-04-20T05:55:50.378Z,6.91
2023-04-20T06:00:48.027Z,6.80
2023-04-20T06:05:41.625Z,6.77
2023-04-20T06:10:35.214Z,6.75
2023-04-20T06:15:28.735Z,6.94
2023-04-20T06:20:23.957Z,6.87
2023-04-20T06:25:17.352Z,6.66
2023-04-20T06:30:12.164Z,6.79
2023-04-20T06:35:05.955Z,6.75
2023-04-20T06:40:00.672Z,6.75
2023-04-20T06:44:54.016Z,6.83
2023-04-20T06:49:47.374Z,6.71
2023-04-20T06:54:40.663Z,6.86
2023-04-20T06:59:35.754Z,7.15
2023-04-20T07:04:30.713Z,7.22
2023-04-20T07:09:24.846Z,7.12
2023-04-20T07:14:18.176Z,6.97
2023-04-20T07:19:12.870Z,7.12
2023-04-20T07:24:06.845Z,7.05
2023-04-20T07:29:00.512Z,6.96
2023-04-20T07:33:53.834Z,6.90
2023-04-20T07:38:48.547Z,6.99
2023-04-20T07:43:41.973Z,7.31
2023-04-20T07:48:36.291Z,7.28
2023-04-20T07:53:30.437Z,7.30
2023-04-20T07:58:25.135Z,7.13
2023-04-20T08:03:18.657Z,7.10
2023-04-20T08:08:12.264Z,6.95
2023-04-20T08:13:05.758Z,6.93
2023-04-20T08:18:00.572Z,6.76
2023-04-20T08:22:54.045Z,6.94
2023-04-20T08:27:47.353Z,7.13
2023-04-20T08:32:41.158Z,7.13
2023-04-20T08:37:37.544Z,7.16
2023-04-20T08:42:31.778Z,7.29
2023-04-20T08:47:25.974Z,7.22
2023-04-20T08:52:19.331Z,7.35
2023-04-20T08:57:14.032Z,6.98
2023-04-20T09:02:12.472Z,7.15
2023-04-20T09:07:06.696Z,7.22
2023-04-20T09:12:04.615Z,7.17
2023-04-20T09:17:02.175Z,7.56
2023-04-20T09:21:58.387Z,7.62
2023-04-20T09:26:51.860Z,7.69
2023-04-20T09:31:45.310Z,7.59
2023-04-20T09:36:42.498Z,7.58
2023-04-20T09:41:37.930Z,7.51
2023-04-20T09:46:33.156Z,7.82
2023-04-20T09:51:29.022Z,7.73
2023-04-20T09:56:24.019Z,7.65
2023-04-20T10:01:17.594Z,7.54
2023-04-20T10:06:24.093Z,7.32
2023-04-20T10:11:44.651Z,7.65
2023-04-20T10:16:46.679Z,7.27
2023-04-20T10:21:49.449Z,7.54
2023-04-20T10:26:47.287Z,7.50
2023-04-20T10:31:41.930Z,7.59
2023-04-20T10:36:37.853Z,7.80
2023-04-20T10:41:31.189Z,7.82
2023-04-20T10:46:26.645Z,7.82
2023-04-20T10:51:20.784Z,8.03
2023-04-20T10:56:14.176Z,8.24
2023-04-20T11:01:07.859Z,8.34
2023-04-20T11:06:04.120Z,8.32
2023-04-20T11:10:57.877Z,8.32
2023-04-20T11:15:51.615Z,8.29
2023-04-20T11:20:53.222Z,8.25
2023-04-20T11:25:53.786Z,8.33
2023-04-20T11:30:47.534Z,8.30
2023-04-20T11:35:44.711Z,8.33
2023-04-20T11:40:38.136Z,8.49
2023-04-20T11:45:36.228Z,8.27
2023-04-20T11:50:38.576Z,8.07
2023-04-20T11:55:34.567Z,7.99
2023-04-20T12:00:31.677Z,8.20
2023-04-20T12:05:26.551Z,8.03
2023-04-20T12:10:19.888Z,8.03
2023-04-20T12:15:13.783Z,8.00
2023-04-20T12:20:12.181Z,7.83
2023-04-20T12:25:08.893Z,7.87
2023-04-20T12:30:02.201Z,7.98
2023-04-20T12:34:56.043Z,8.17
2023-04-20T12:39:49.325Z,8.23
2023-04-20T12:44:43.997Z,8.21
2023-04-20T12:49:37.353Z,8.16
2023-04-20T12:54:30.787Z,8.18
2023-04-20T12:59:24.167Z,8.23
2023-04-20T13:04:19.378Z,8.09
2023-04-20T13:09:13.032Z,8.22
2023-04-20T13:14:06.325Z,8.32
2023-04-20T13:18:59.668Z,8.63
2023-04-20T13:23:55.545Z,8.59
2023-04-20T13:28:50.268Z,8.46
2023-04-20T13:33:43.568Z,8.38
2023-04-20T13:38:36.947Z,8.32
2023-04-20T13:43:31.722Z,8.29
2023-04-20T13:48:25.111Z,8.22
2023-04-20T13:53:18.463Z,8.17
2023-04-20T13:58:11.827Z,8.27
2023-04-20T14:03:07.117Z,8.07
2023-04-20T14:08:01.724Z,8.10
2023-04-20T14:12:55.469Z,8.25
2023-04-20T14:17:51.692Z,7.91
2023-04-20T14:22:47.091Z,7.93
2023-04-20T14:27:40.446Z,7.85
2023-04-20T14:32:35.827Z,7.84
2023-04-20T14:37:29.151Z,7.95
2023-04-20T14:42:24.012Z,7.86
2023-04-20T14:47:17.431Z,7.96
2023-04-20T14:52:10.789Z,8.03
2023-04-20T14:57:04.116Z,8.28
2023-04-20T15:02:02.773Z,8.10
2023-04-20T15:06:56.773Z,8.12
2023-04-20T15:11:50.317Z,8.00
2023-04-20T15:16:44.212Z,8.04
2023-04-20T15:21:38.963Z,7.99
2023-04-20T15:27:02.769Z,8.11
2023-04-20T15:31:58.597Z,7.87
2023-04-20T15:36:53.336Z,7.84
2023-04-20T15:41:52.990Z,7.85
2023-04-20T15:46:48.364Z,7.86
2023-04-20T15:51:42.641Z,7.94
2023-04-20T15:56:41.499Z,8.06
2023-04-20T16:01:36.083Z,8.21
2023-04-20T16:06:29.421Z,8.26
2023-04-20T16:11:26.448Z,8.12
2023-04-20T16:16:23.845Z,8.24
2023-04-20T16:21:19.796Z,8.26
2023-04-20T16:26:16.237Z,8.31
2023-04-20T16:31:11.944Z,8.22
2023-04-20T16:36:08.413Z,7.91
2023-04-20T16:41:06.007Z,8.01
2023-04-20T16:46:05.372Z,7.95
2023-04-20T16:51:01.273Z,7.86
2023-04-20T16:55:59.488Z,7.63
2023-04-20T17:00:52.953Z,7.79
2023-04-20T17:05:47.064Z,7.81
2023-04-20T17:10:40.860Z,7.72
2023-04-20T17:15:35.604Z,7.74
2023-04-20T17:20:28.939Z,7.66
2023-04-20T17:25:22.277Z,7.70
2023-04-20T17:30:16.067Z,7.76
2023-04-20T17:35:11.305Z,7.76
2023-04-20T17:40:06.368Z,7.74
2023-04-20T17:44:59.724Z,7.82
2023-04-20T17:49:53.112Z,7.75
2023-04-20T17:54:47.792Z,7.74
2023-04-20T17:59:42.318Z,7.74
2023-04-20T18:04:35.922Z,7.84
2023-04-20T18:09:29.320Z,7.96
2023-04-20T18:14:24.549Z,7.86
2023-04-20T18:19:18.084Z,7.76
2023-04-20T18:24:11.332Z,7.58
2023-04-20T18:29:05.364Z,7.50
2023-04-20T18:34:00.118Z,7.47
2023-04-20T18:38:54.118Z,7.49
2023-04-20T18:43:49.636Z,7.47
2023-04-20T18:48:42.971Z,7.56
2023-04-20T18:53:37.676Z,7.64
2023-04-20T18:58:31.128Z,7.47
2023-04-20T19:03:25.523Z,7.43
2023-04-20T19:08:19.134Z,7.34
2023-04-20T19:13:17.501Z,6.98
2023-04-20T19:18:11.506Z,7.09
2023-04-20T19:23:04.977Z,7.16
2023-04-20T19:27:58.833Z,7.16
2023-04-20T19:32:53.514Z,7.16
2023-04-20T19:37:47.875Z,7.07
2023-04-20T19:42:42.435Z,7.00
2023-04-20T19:47:36.690Z,7.02
2023-04-20T19:52:32.532Z,7.20
2023-04-20T19:57:25.886Z,7.22
2023-04-20T20:02:22.434Z,7.30
2023-04-20T20:07:16.753Z,7.36
2023-04-20T20:12:12.465Z,7.25
2023-04-20T20:17:06.710Z,7.21
2023-04-20T20:22:00.061Z,7.17
2023-04-20T20:26:53.543Z,7.19
2023-04-20T20:31:48.401Z,7.04
2023-04-20T20:36:44.806Z,6.91
2023-04-20T20:41:42.770Z,6.98
2023-04-20T20:46:36.300Z,7.20
2023-04-20T20:51:31.501Z,7.37
2023-04-20T20:56:24.963Z,7.28
2023-04-20T21:01:18.412Z,7.20
2023-04-20T21:06:11.812Z,7.19
2023-04-20T21:11:06.631Z,7.10
2023-04-20T21:16:00.009Z,7.08
2023-04-20T21:20:53.415Z,6.99
2023-04-20T21:25:46.705Z,7.02
2023-04-20T21:30:41.379Z,6.94
2023-04-20T21:35:34.706Z,6.76
2023-04-20T21:40:28.077Z,6.92
2023-04-20T21:45:21.446Z,7.09
2023-04-20T21:50:16.370Z,7.11
2023-04-20T21:55:10.732Z,6.97
2023-04-20T22:00:04.306Z,7.00
2023-04-20T22:04:58.008Z,7.03
2023-04-20T22:09:52.674Z,7.01
2023-04-20T22:14:46.238Z,7.00
2023-04-20T22:19:39.575Z,7.04
2023-04-20T22:24:33.412Z,7.15
2023-04-20T22:29:30.034Z,6.95
2023-04-20T22:34:23.358Z,6.90
2023-04-20T22:39:16.832Z,6.85
2023-04-20T22:44:10.518Z,6.81
2023-04-20T22:49:05.500Z,6.83
2023-04-20T22:54:01.006Z,6.77
2023-04-20T22:58:54.356Z,6.88
2023-04-20T23:03:47.787Z,6.70
2023-04-20T23:08:42.724Z,6.82
2023-04-20T23:13:37.251Z,6.60
2023-04-20T23:18:31.210Z,6.54
2023-04-20T23:23:24.570Z,6.71
2023-04-20T23:28:19.438Z,6.51
2023-04-20T23:33:12.898Z,6.46
2023-04-20T23:38:06.415Z,6.21
2023-04-20T23:42:59.808Z,6.11
2023-04-20T23:47:54.549Z,6.10
2023-04-20T23:52:48.048Z,6.27
2023-04-20T23:57:41.407Z,6.02
